createdAt,value
2017-09-26T00:01:57.410Z,83.32
2017-09-26T00:04:25.039Z,83.49
2017-09-26T00:06:52.635Z,83.52
2017-09-26T00:09:20.259Z,83.55
2017-09-26T00:11:48.032Z,83.75
2017-09-26T00:14:15.671Z,84.17
2017-09-26T00:16:43.294Z,84.72
2017-09-26T00:19:10.894Z,85.07
2017-09-26T00:21:38.528Z,85.24
2017-09-26T00:24:06.181Z,84.96
2017-09-26T00:26:33.814Z,84.66
2017-09-26T00:29:01.400Z,84.60
2017-09-26T00:31:29.053Z,84.65
2017-09-26T00:33:56.771Z,84.86
2017-09-26T00:36:24.423Z,84.94
2017-09-26T00:38:52.534Z,85.24
2017-09-26T00:41:20.177Z,85.51
2017-09-26T00:43:47.744Z,85.66
2017-09-26T00:46:15.353Z,85.49
2017-09-26T00:48:42.963Z,85.49
2017-09-26T00:51:10.606Z,85.46
2017-09-26T00:53:38.288Z,85.52
2017-09-26T00:56:05.951Z,85.53
2017-09-26T00:58:33.547Z,85.75
2017-09-26T01:01:01.206Z,85.99
2017-09-26T01:03:30.752Z,86.21
2017-09-26T01:06:03.889Z,86.43
2017-09-26T01:08:31.484Z,86.52
2017-09-26T01:10:59.104Z,86.57
2017-09-26T01:13:26.696Z,86.37
2017-09-26T01:15:54.318Z,86.24
2017-09-26T01:18:21.917Z,86.41
2017-09-26T01:20:49.510Z,86.59
2017-09-26T01:23:17.111Z,86.71
2017-09-26T01:25:44.739Z,86.67
2017-09-26T01:28:12.344Z,86.96
2017-09-26T01:30:39.987Z,87.02
2017-09-26T01:33:07.575Z,87.25
2017-09-26T01:35:35.182Z,87.27
2017-09-26T01:38:04.051Z,87.22
2017-09-26T01:40:43.277Z,87.09
2017-09-26T01:43:10.878Z,87.06
2017-09-26T01:45:38.503Z,86.98
2017-09-26T01:48:06.087Z,86.93
2017-09-26T01:50:34.627Z,86.85
2017-09-26T01:53:02.288Z,86.91
2017-09-26T01:55:29.910Z,87.11
2017-09-26T01:57:57.491Z,87.24
2017-09-26T02:00:25.106Z,87.07
2017-09-26T02:02:52.709Z,87.31
2017-09-26T02:05:20.349Z,87.56
2017-09-26T02:07:47.946Z,87.79
2017-09-26T02:10:15.571Z,88.12
2017-09-26T02:12:43.164Z,88.27
2017-09-26T02:15:10.802Z,88.10
2017-09-26T02:17:38.403Z,88.05
2017-09-26T02:20:06.054Z,88.07
2017-09-26T02:22:33.645Z,88.10
2017-09-26T02:25:01.266Z,88.37
2017-09-26T02:27:28.854Z,88.41
2017-09-26T02:29:56.506Z,88.61
2017-09-26T02:32:24.095Z,88.72
2017-09-26T02:34:51.781Z,88.76
2017-09-26T02:37:19.368Z,88.88
2017-09-26T02:39:46.982Z,88.90
2017-09-26T02:42:14.602Z,88.97
2017-09-26T02:44:42.227Z,89.11
2017-09-26T02:47:09.810Z,89.17
2017-09-26T02:49:37.432Z,89.41
2017-09-26T02:52:05.050Z,89.56
2017-09-26T02:54:32.661Z,89.61
2017-09-26T02:57:00.285Z,89.52
2017-09-26T02:59:27.905Z,89.40
2017-09-26T03:01:55.569Z,89.06
2017-09-26T03:04:23.151Z,88.98
2017-09-26T03:06:50.767Z,88.70
2017-09-26T03:09:18.352Z,88.59
2017-09-26T03:11:45.966Z,88.42
2017-09-26T03:14:13.563Z,88.33
2017-09-26T03:16:41.198Z,88.24
2017-09-26T03:19:08.791Z,88.39
2017-09-26T03:21:36.556Z,88.34
2017-09-26T03:24:04.148Z,88.34
2017-09-26T03:26:31.778Z,88.52
2017-09-26T03:28:59.373Z,88.67
2017-09-26T03:31:27.043Z,88.79
2017-09-26T03:33:54.631Z,88.69
2017-09-26T03:36:22.250Z,88.63
2017-09-26T03:38:49.841Z,88.52
2017-09-26T03:41:17.466Z,88.26
2017-09-26T03:43:45.066Z,88.23
2017-09-26T03:46:12.669Z,88.36
2017-09-26T03:48:40.300Z,88.43
2017-09-26T03:51:07.896Z,88.64
2017-09-26T03:53:35.527Z,89.20
2017-09-26T03:56:03.124Z,89.72
2017-09-26T03:58:30.736Z,89.95
2017-09-26T04:00:58.416Z,90.18
2017-09-26T04:03:26.031Z,90.37
2017-09-26T04:05:53.633Z,90.52
2017-09-26T04:08:22.083Z,90.46
2017-09-26T04:10:49.702Z,90.37
2017-09-26T04:13:17.459Z,90.14
2017-09-26T04:15:45.057Z,90.07
2017-09-26T04:18:12.691Z,90.02
2017-09-26T04:20:40.292Z,90.04
2017-09-26T04:23:07.984Z,90.09
2017-09-26T04:25:35.916Z,90.01
2017-09-26T04:28:03.543Z,89.89
2017-09-26T04:30:31.150Z,89.70
2017-09-26T04:32:58.760Z,89.64
2017-09-26T04:35:26.455Z,89.55
2017-09-26T04:37:54.060Z,89.38
2017-09-26T04:40:21.709Z,89.07
2017-09-26T04:42:49.326Z,88.78
2017-09-26T04:45:16.947Z,88.86
2017-09-26T04:47:44.534Z,89.33
2017-09-26T04:50:12.135Z,89.63
2017-09-26T04:52:39.734Z,89.91
2017-09-26T04:55:07.363Z,90.11
2017-09-26T04:57:35.028Z,90.19
2017-09-26T05:00:02.651Z,90.25
2017-09-26T05:02:30.305Z,90.09
2017-09-26T05:04:58.029Z,89.90
2017-09-26T05:07:25.638Z,89.79
2017-09-26T05:09:53.255Z,89.93
2017-09-26T05:12:20.863Z,89.91
2017-09-26T05:14:48.609Z,89.97
2017-09-26T05:17:16.350Z,90.16
2017-09-26T05:19:44.043Z,90.20
2017-09-26T05:22:11.802Z,90.24
2017-09-26T05:24:39.679Z,90.26
2017-09-26T05:27:08.489Z,90.24
2017-09-26T05:29:36.155Z,90.32
2017-09-26T05:32:03.783Z,90.47
2017-09-26T05:34:31.437Z,90.51
2017-09-26T05:36:59.050Z,91.30
2017-09-26T05:39:26.675Z,90.85
2017-09-26T05:41:54.279Z,90.34
2017-09-26T05:44:21.919Z,90.43
2017-09-26T05:46:49.521Z,90.55
2017-09-26T05:49:17.156Z,90.67
2017-09-26T05:51:44.763Z,90.90
2017-09-26T05:54:12.430Z,91.14
2017-09-26T05:56:40.024Z,91.43
2017-09-26T05:59:07.654Z,91.46
2017-09-26T06:01:35.284Z,91.34
2017-09-26T06:04:02.942Z,91.32
2017-09-26T06:06:30.554Z,91.25
2017-09-26T06:08:58.216Z,91.03
2017-09-26T06:11:26.061Z,91.02
2017-09-26T06:13:53.990Z,91.03
2017-09-26T06:16:21.841Z,90.96
2017-09-26T06:18:49.804Z,90.98
2017-09-26T06:21:18.699Z,90.59
2017-09-26T06:23:46.667Z,90.04
2017-09-26T06:26:14.441Z,90.13
2017-09-26T06:28:42.228Z,90.40
2017-09-26T06:31:10.200Z,90.14
2017-09-26T06:33:38.233Z,90.13
2017-09-26T06:36:06.816Z,90.04
2017-09-26T06:38:34.618Z,90.03
2017-09-26T06:41:02.652Z,89.68
2017-09-26T06:43:30.518Z,89.60
2017-09-26T06:45:58.584Z,88.97
2017-09-26T06:48:26.535Z,88.73
2017-09-26T06:50:54.129Z,88.78
2017-09-26T06:53:21.775Z,88.93
2017-09-26T06:55:49.374Z,88.88
2017-09-26T06:58:17.121Z,88.76
2017-09-26T07:00:44.715Z,88.55
2017-09-26T07:03:12.462Z,88.57
2017-09-26T07:05:40.119Z,88.60
2017-09-26T07:08:07.731Z,88.63
2017-09-26T07:10:35.379Z,87.85
2017-09-26T07:13:03.000Z,87.72
2017-09-26T07:15:30.645Z,87.75
2017-09-26T07:17:58.341Z,87.82
2017-09-26T07:20:25.971Z,87.83
2017-09-26T07:22:53.570Z,87.75
2017-09-26T07:25:21.207Z,87.77
2017-09-26T07:27:48.812Z,87.50
2017-09-26T07:30:16.478Z,87.34
2017-09-26T07:32:44.096Z,86.93
2017-09-26T07:35:11.725Z,86.53
2017-09-26T07:37:39.323Z,86.52
2017-09-26T07:40:06.950Z,85.86
2017-09-26T07:42:34.584Z,85.70
2017-09-26T07:45:02.229Z,84.92
2017-09-26T07:47:29.831Z,85.04
2017-09-26T07:49:57.450Z,84.90
2017-09-26T07:52:25.048Z,84.81
2017-09-26T07:54:52.690Z,83.87
2017-09-26T07:57:20.300Z,84.03
2017-09-26T07:59:47.998Z,83.77
2017-09-26T08:02:15.907Z,83.59
2017-09-26T08:04:43.891Z,83.85
2017-09-26T08:07:11.835Z,81.97
2017-09-26T08:09:39.949Z,82.42
2017-09-26T08:12:07.547Z,82.22
2017-09-26T08:14:35.158Z,83.03
2017-09-26T08:17:02.799Z,83.43
2017-09-26T08:19:30.402Z,83.52
2017-09-26T08:21:58.042Z,83.16
2017-09-26T08:24:25.762Z,82.51
2017-09-26T08:26:53.382Z,82.13
2017-09-26T08:29:20.990Z,81.79
2017-09-26T08:31:48.723Z,81.97
2017-09-26T08:34:16.397Z,82.03
2017-09-26T08:36:44.055Z,82.20
2017-09-26T08:39:11.658Z,81.70
2017-09-26T08:41:39.434Z,82.24
2017-09-26T08:44:07.051Z,81.27
2017-09-26T08:46:34.742Z,80.89
2017-09-26T08:49:02.391Z,81.13
2017-09-26T08:51:29.992Z,80.98
2017-09-26T08:53:57.636Z,79.72
2017-09-26T08:56:25.287Z,80.01
2017-09-26T08:58:52.914Z,79.63
2017-09-26T09:01:20.566Z,79.32
2017-09-26T09:03:48.196Z,79.55
2017-09-26T09:06:15.817Z,78.81
2017-09-26T09:08:43.454Z,78.74
2017-09-26T09:11:11.062Z,78.53
2017-09-26T09:13:38.695Z,77.99
2017-09-26T09:16:06.382Z,77.29
2017-09-26T09:18:34.041Z,76.46
2017-09-26T09:21:01.630Z,77.02
2017-09-26T09:23:29.278Z,76.34
2017-09-26T09:25:56.893Z,76.16
2017-09-26T09:28:24.642Z,75.57
2017-09-26T09:30:52.239Z,75.39
2017-09-26T09:33:19.883Z,75.37
2017-09-26T09:35:47.495Z,75.28
2017-09-26T09:38:15.160Z,73.95
2017-09-26T09:40:42.774Z,72.15
2017-09-26T09:43:10.412Z,73.27
2017-09-26T09:45:38.006Z,69.05
2017-09-26T09:48:05.632Z,68.34
2017-09-26T09:50:33.261Z,68.45
2017-09-26T09:53:00.883Z,67.71
2017-09-26T09:55:28.503Z,66.50
2017-09-26T09:57:56.175Z,66.38
2017-09-26T10:00:23.774Z,66.39
2017-09-26T10:02:51.403Z,65.91
2017-09-26T10:05:19.018Z,65.59
2017-09-26T10:07:46.658Z,66.07
2017-09-26T10:10:14.323Z,66.07
2017-09-26T10:12:41.970Z,65.66
2017-09-26T10:15:09.591Z,64.93
2017-09-26T10:17:37.223Z,64.86
2017-09-26T10:20:04.826Z,63.28
2017-09-26T10:22:32.469Z,63.58
2017-09-26T10:25:00.077Z,63.76
2017-09-26T10:27:27.723Z,62.02
2017-09-26T10:29:55.329Z,61.84
2017-09-26T10:32:22.920Z,61.62
2017-09-26T10:34:50.554Z,62.74
2017-09-26T10:37:18.161Z,63.11
2017-09-26T10:39:45.786Z,63.66
2017-09-26T10:42:13.396Z,64.59
2017-09-26T10:44:41.024Z,65.58
2017-09-26T10:47:08.619Z,66.48
2017-09-26T10:49:36.294Z,67.25
2017-09-26T10:52:03.882Z,67.53
2017-09-26T10:54:31.511Z,67.11
2017-09-26T10:56:59.122Z,66.84
2017-09-26T10:59:26.738Z,66.92
2017-09-26T11:01:54.327Z,67.93
2017-09-26T11:04:21.964Z,67.19
2017-09-26T11:06:49.554Z,67.23
2017-09-26T11:09:17.170Z,67.39
2017-09-26T11:11:44.774Z,67.15
2017-09-26T11:14:12.401Z,67.29
2017-09-26T11:16:40.002Z,67.59
2017-09-26T11:19:07.622Z,67.33
2017-09-26T11:21:35.240Z,67.23
2017-09-26T11:24:02.851Z,67.35
2017-09-26T11:26:30.498Z,66.94
2017-09-26T11:28:58.146Z,66.28
2017-09-26T11:31:25.788Z,67.33
2017-09-26T11:33:53.402Z,67.31
2017-09-26T11:36:21.016Z,67.66
2017-09-26T11:38:48.647Z,66.96
2017-09-26T11:41:16.289Z,67.27
2017-09-26T11:43:43.894Z,66.25
2017-09-26T11:46:11.521Z,63.90
2017-09-26T11:48:39.128Z,64.01
2017-09-26T11:51:06.781Z,62.92
2017-09-26T11:53:34.375Z,63.00
2017-09-26T11:56:02.001Z,63.00
2017-09-26T11:58:29.668Z,61.81
2017-09-26T12:00:57.307Z,61.58
2017-09-26T12:03:24.910Z,60.78
2017-09-26T12:05:52.533Z,62.71
2017-09-26T12:08:20.151Z,64.25
2017-09-26T12:10:47.863Z,64.56
2017-09-26T12:13:21.077Z,64.72
2017-09-26T12:15:48.707Z,65.38
2017-09-26T12:18:16.290Z,65.89
2017-09-26T12:20:43.949Z,67.10
2017-09-26T12:23:11.557Z,67.54
2017-09-26T12:25:39.214Z,66.62
2017-09-26T12:28:06.808Z,66.93
2017-09-26T12:30:34.416Z,67.31
2017-09-26T12:33:02.035Z,67.59
2017-09-26T12:35:29.662Z,67.74
2017-09-26T12:37:57.267Z,66.67
2017-09-26T12:40:24.891Z,67.49
2017-09-26T12:42:52.498Z,69.22
2017-09-26T12:45:20.103Z,71.08
2017-09-26T12:47:47.735Z,71.98
2017-09-26T12:50:15.358Z,72.79
2017-09-26T12:52:43.018Z,76.31
2017-09-26T12:55:10.631Z,79.01
2017-09-26T12:57:38.264Z,79.03
2017-09-26T13:00:05.859Z,76.93
2017-09-26T13:02:33.494Z,80.10
2017-09-26T13:05:01.246Z,81.05
2017-09-26T13:07:28.886Z,82.07
2017-09-26T13:09:56.506Z,82.73
2017-09-26T13:12:24.158Z,83.63
2017-09-26T13:14:51.772Z,83.55
2017-09-26T13:17:19.400Z,81.74
2017-09-26T13:19:46.998Z,81.37
2017-09-26T13:22:14.646Z,81.85
2017-09-26T13:24:42.253Z,84.50
2017-09-26T13:27:09.859Z,85.82
2017-09-26T13:29:37.492Z,84.41
2017-09-26T13:32:05.098Z,82.66
2017-09-26T13:34:32.778Z,81.91
2017-09-26T13:37:00.374Z,81.09
2017-09-26T13:39:27.998Z,82.99
2017-09-26T13:41:55.603Z,83.20
2017-09-26T13:44:23.247Z,82.69
2017-09-26T13:46:50.874Z,84.64
2017-09-26T13:49:18.522Z,84.62
2017-09-26T13:51:46.167Z,80.97
2017-09-26T13:54:13.823Z,81.54
2017-09-26T13:56:41.426Z,83.96
2017-09-26T13:59:09.054Z,84.52
2017-09-26T14:01:36.665Z,84.80
2017-09-26T14:04:04.392Z,83.04
2017-09-26T14:06:32.008Z,82.42
2017-09-26T14:08:59.628Z,83.63
2017-09-26T14:11:27.337Z,84.64
2017-09-26T14:13:55.004Z,81.99
2017-09-26T14:16:22.556Z,82.71
2017-09-26T14:18:50.154Z,83.59
2017-09-26T14:21:17.808Z,83.34
2017-09-26T14:23:45.453Z,80.84
2017-09-26T14:26:13.071Z,80.93
2017-09-26T14:28:40.674Z,78.24
2017-09-26T14:31:08.342Z,79.92
2017-09-26T14:33:35.956Z,80.65
2017-09-26T14:36:03.575Z,81.46
2017-09-26T14:38:31.199Z,80.69
2017-09-26T14:40:58.921Z,82.18
2017-09-26T14:43:26.540Z,82.79
2017-09-26T14:45:54.190Z,83.83
2017-09-26T14:48:21.860Z,83.00
2017-09-26T14:50:49.470Z,83.94
2017-09-26T14:53:17.073Z,85.05
2017-09-26T14:55:44.704Z,83.46
2017-09-26T14:58:12.314Z,79.31
2017-09-26T15:00:39.994Z,75.30
2017-09-26T15:03:08.028Z,71.93
2017-09-26T15:05:35.625Z,71.36
2017-09-26T15:08:03.386Z,68.50
2017-09-26T15:10:31.086Z,67.66
2017-09-26T15:12:58.702Z,67.33
2017-09-26T15:15:26.310Z,66.21
2017-09-26T15:17:53.958Z,65.32
2017-09-26T15:20:21.572Z,63.73
2017-09-26T15:22:49.205Z,60.89
2017-09-26T15:25:16.815Z,60.43
2017-09-26T15:27:44.441Z,59.77
2017-09-26T15:30:12.070Z,58.79
2017-09-26T15:32:39.682Z,58.41
2017-09-26T15:35:07.303Z,57.79
2017-09-26T15:37:34.947Z,59.27
2017-09-26T15:40:02.594Z,58.60
2017-09-26T15:42:30.187Z,60.04
2017-09-26T15:44:57.813Z,60.89
2017-09-26T15:47:25.411Z,63.77
2017-09-26T15:49:53.039Z,66.04
2017-09-26T15:52:20.662Z,66.93
2017-09-26T15:54:48.314Z,68.18
2017-09-26T15:57:15.927Z,69.05
2017-09-26T15:59:43.521Z,68.94
2017-09-26T16:02:11.143Z,67.89
2017-09-26T16:04:38.740Z,69.08
2017-09-26T16:07:06.430Z,68.63
2017-09-26T16:09:34.031Z,69.19
2017-09-26T16:12:01.677Z,69.46
2017-09-26T16:14:29.323Z,69.51
2017-09-26T16:16:57.108Z,69.93
2017-09-26T16:19:24.718Z,70.43
2017-09-26T16:21:52.348Z,70.88
2017-09-26T16:24:20.011Z,71.17
2017-09-26T16:26:47.660Z,70.46
2017-09-26T16:29:15.287Z,70.93
2017-09-26T16:31:42.879Z,70.40
2017-09-26T16:34:10.507Z,71.73
2017-09-26T16:36:38.096Z,72.51
2017-09-26T16:39:05.734Z,73.78
2017-09-26T16:41:33.355Z,73.55
2017-09-26T16:44:00.952Z,73.64
2017-09-26T16:46:28.635Z,73.07
2017-09-26T16:48:56.230Z,73.65
2017-09-26T16:51:23.864Z,73.91
2017-09-26T16:53:51.513Z,73.91
2017-09-26T16:56:19.156Z,74.54
2017-09-26T16:58:46.814Z,74.72
2017-09-26T17:01:14.441Z,74.91
2017-09-26T17:03:42.035Z,74.40
2017-09-26T17:06:09.666Z,74.63
2017-09-26T17:08:37.363Z,75.09
2017-09-26T17:11:04.983Z,75.62
2017-09-26T17:13:32.578Z,75.13
2017-09-26T17:16:00.262Z,75.35
2017-09-26T17:18:27.881Z,75.16
2017-09-26T17:20:55.519Z,75.13
2017-09-26T17:23:23.127Z,74.62
2017-09-26T17:25:50.827Z,74.84
2017-09-26T17:28:18.971Z,75.25
2017-09-26T17:30:46.624Z,75.54
2017-09-26T17:33:14.235Z,75.93
2017-09-26T17:35:41.945Z,76.19
2017-09-26T17:38:09.616Z,76.73
2017-09-26T17:40:37.322Z,76.27
2017-09-26T17:43:04.931Z,76.08
2017-09-26T17:45:32.569Z,76.21
2017-09-26T17:48:00.263Z,76.20
2017-09-26T17:50:27.854Z,76.54
2017-09-26T17:52:55.519Z,77.09
2017-09-26T17:55:23.175Z,77.67
2017-09-26T17:57:50.818Z,78.18
2017-09-26T18:00:18.537Z,78.33
2017-09-26T18:02:46.183Z,78.35
2017-09-26T18:05:13.787Z,78.86
2017-09-26T18:07:41.452Z,79.29
2017-09-26T18:10:09.071Z,79.27
2017-09-26T18:12:36.713Z,78.75
2017-09-26T18:15:04.342Z,78.52
2017-09-26T18:17:32.734Z,79.47
2017-09-26T18:20:00.688Z,80.19
2017-09-26T18:22:28.355Z,80.99
2017-09-26T18:24:55.946Z,80.95
2017-09-26T18:27:23.601Z,80.85
2017-09-26T18:29:51.212Z,81.62
2017-09-26T18:32:18.867Z,82.46
2017-09-26T18:34:46.463Z,82.65
2017-09-26T18:37:14.088Z,82.41
2017-09-26T18:39:41.764Z,82.33
2017-09-26T18:42:09.455Z,82.54
2017-09-26T18:44:37.598Z,82.94
2017-09-26T18:47:05.963Z,83.59
2017-09-26T18:49:33.766Z,84.39
2017-09-26T18:52:01.494Z,84.77
2017-09-26T18:54:29.231Z,84.84
2017-09-26T18:56:56.858Z,84.61
2017-09-26T18:59:25.267Z,84.01
2017-09-26T19:01:52.929Z,83.59
2017-09-26T19:04:20.631Z,83.10
2017-09-26T19:06:49.485Z,83.42
2017-09-26T19:09:17.139Z,83.45
2017-09-26T19:11:47.870Z,82.81
2017-09-26T19:14:16.552Z,82.25
2017-09-26T19:16:45.242Z,82.21
2017-09-26T19:19:13.722Z,82.05
2017-09-26T19:21:41.318Z,81.49
2017-09-26T19:24:08.951Z,81.25
2017-09-26T19:26:36.585Z,80.57
2017-09-26T19:29:04.220Z,80.50
2017-09-26T19:31:31.825Z,80.66
2017-09-26T19:33:59.615Z,80.58
2017-09-26T19:36:27.239Z,80.46
2017-09-26T19:38:54.898Z,80.17
2017-09-26T19:41:22.505Z,80.20
2017-09-26T19:43:50.255Z,79.99
2017-09-26T19:46:17.888Z,79.72
2017-09-26T19:48:45.587Z,80.07
2017-09-26T19:51:13.189Z,80.07
2017-09-26T19:53:40.830Z,80.14
2017-09-26T19:56:08.518Z,80.13
2017-09-26T19:58:36.167Z,80.05
2017-09-26T20:01:03.766Z,80.07
2017-09-26T20:03:31.442Z,80.23
2017-09-26T20:05:59.151Z,80.19
2017-09-26T20:08:26.954Z,80.52
2017-09-26T20:10:54.573Z,80.66
2017-09-26T20:13:22.947Z,80.46
2017-09-26T20:15:50.602Z,80.52
2017-09-26T20:18:18.427Z,80.65
2017-09-26T20:20:46.691Z,80.53
2017-09-26T20:23:14.343Z,80.28
2017-09-26T20:25:42.119Z,80.47
2017-09-26T20:28:11.157Z,80.31
2017-09-26T20:30:38.776Z,80.27
2017-09-26T20:33:09.397Z,80.24
2017-09-26T20:35:36.983Z,80.15
2017-09-26T20:38:04.642Z,80.01
2017-09-26T20:40:32.278Z,79.74
2017-09-26T20:42:59.926Z,79.57
2017-09-26T20:45:28.403Z,79.48
2017-09-26T20:47:56.055Z,80.16
2017-09-26T20:50:23.659Z,80.67
2017-09-26T20:52:52.011Z,80.77
2017-09-26T20:55:19.642Z,80.80
2017-09-26T20:57:47.388Z,81.50
2017-09-26T21:00:15.043Z,81.80
2017-09-26T21:02:42.655Z,82.64
2017-09-26T21:05:10.337Z,83.19
2017-09-26T21:07:37.950Z,83.90
2017-09-26T21:10:09.021Z,85.04
2017-09-26T21:12:36.624Z,85.41
2017-09-26T21:15:04.267Z,85.28
2017-09-26T21:17:31.904Z,85.20
2017-09-26T21:19:59.532Z,85.35
2017-09-26T21:22:27.175Z,85.27
2017-09-26T21:24:54.852Z,84.64
2017-09-26T21:27:22.459Z,83.96
2017-09-26T21:29:50.094Z,83.51
2017-09-26T21:32:17.866Z,83.43
2017-09-26T21:34:45.467Z,83.04
2017-09-26T21:37:13.819Z,82.60
2017-09-26T21:39:41.411Z,82.37
2017-09-26T21:42:09.056Z,82.06
2017-09-26T21:44:36.653Z,82.16
2017-09-26T21:47:04.263Z,82.29
2017-09-26T21:49:31.858Z,82.55
2017-09-26T21:51:59.505Z,82.56
2017-09-26T21:54:27.101Z,82.68
2017-09-26T21:56:54.725Z,83.17
2017-09-26T21:59:22.369Z,83.35
2017-09-26T22:01:50.015Z,83.54
2017-09-26T22:04:17.603Z,83.71
2017-09-26T22:06:45.223Z,84.01
2017-09-26T22:09:12.852Z,84.11
2017-09-26T22:11:40.522Z,84.14
2017-09-26T22:14:08.120Z,84.27
2017-09-26T22:16:35.726Z,84.37
2017-09-26T22:19:03.383Z,84.38
2017-09-26T22:21:31.192Z,84.71
2017-09-26T22:23:58.788Z,85.49
2017-09-26T22:26:26.440Z,85.37
2017-09-26T22:28:54.038Z,85.30
2017-09-26T22:31:21.707Z,85.13
2017-09-26T22:33:49.303Z,85.08
2017-09-26T22:36:16.897Z,85.09
2017-09-26T22:38:44.519Z,85.05
2017-09-26T22:41:12.112Z,85.02
2017-09-26T22:43:39.741Z,85.23
2017-09-26T22:46:07.336Z,85.65
2017-09-26T22:48:34.950Z,85.68
2017-09-26T22:51:02.624Z,85.82
2017-09-26T22:53:30.254Z,85.54
2017-09-26T22:55:57.875Z,85.34
2017-09-26T22:58:25.670Z,85.33
2017-09-26T23:00:53.271Z,85.78
2017-09-26T23:03:20.918Z,85.48
2017-09-26T23:05:48.818Z,85.57
2017-09-26T23:08:18.116Z,85.58
2017-09-26T23:10:46.621Z,85.23
2017-09-26T23:13:14.234Z,85.15
2017-09-26T23:15:41.859Z,85.30
2017-09-26T23:18:09.610Z,85.21
2017-09-26T23:20:37.233Z,85.30
2017-09-26T23:23:04.818Z,85.30
2017-09-26T23:25:32.448Z,85.32
2017-09-26T23:28:00.030Z,85.20
2017-09-26T23:30:27.662Z,85.39
2017-09-26T23:32:55.278Z,85.03
2017-09-26T23:35:22.918Z,84.96
2017-09-26T23:37:50.516Z,85.32
2017-09-26T23:40:18.114Z,85.50
2017-09-26T23:42:45.755Z,85.98
2017-09-26T23:45:13.505Z,86.57
2017-09-26T23:47:41.105Z,86.63
2017-09-26T23:50:08.702Z,86.60
2017-09-26T23:52:36.331Z,86.48
2017-09-26T23:55:03.918Z,86.07
2017-09-26T23:57:31.605Z,85.89
2017-09-26T23:59:59.210Z,86.03
